Kapalua-West, HI

12:05 AM HST am 23. Oktober 2014 (GMT -1000)
The Ridge at Kapalua | Change Station
CLOSE
Current Station
Persönliche Wetterstationen
Location: Kapalua, HI
Höhe: 100 ft
Wetterstationen in der Umgebung

Höhe 100 ft 21.00 °N, 156.66 °W | Updated 2 minutes ago

Scattered Clouds
Teils Wolkig
74.5 °F
gefühlte 74 °F
N
0.0
Wind Wechselnd Wind aus Ost-Südost
Gusts 1.0 mph

Heute
Max. -- | schwach -- °F
--% Regenrisiko
Gestern
Max. -- | schwach -- °F
Precip. -- inch
6:25 AM 5:56 PM
Letztes Viertel, 0% visible
Druck 30.03 inch
Sichtweite 10.0 Meilen
Wolken Few 2800 ft
Teils Wolkig 3700 ft
Hitzeindex 74 °F
Taupunkt 70 °F
Feuchtigkeit 87%
Regen 0.00 inch
Schneehöhe Nicht verfügbar..
UV 0 von 12
Pollen Nicht verfügbar..
Luftqualität Nicht verfügbar..
Flu Activity Sporadic
METAR PHOG 230954Z AUTO 00000KT 10SM FEW028 SCT037 22/21 A3001 RMK AO2 SLP168 T02220211 403110222 TSNO

More Conditions Fewer Conditions

Druck 30.03 inch
Sichtweite 10.0 Meilen
Wolken Few 2800 ft
Teils Wolkig 3700 ft
Hitzeindex 74 °F
Taupunkt 70 °F
Feuchtigkeit 87%
Regen 0.00 inch
Schneehöhe Nicht verfügbar..
UV 0 von 12
Pollen Nicht verfügbar..
Luftqualität Nicht verfügbar..
Flu Activity Sporadic
METAR PHOG 230954Z AUTO 00000KT 10SM FEW028 SCT037 22/21 A3001 RMK AO2 SLP168 T02220211 403110222 TSNO

More Conditions Fewer Conditions

10-Day Weather Forecast

Almanac

Astronomie

Oct. 23, 2014 Aufgang Untergang
Genaue Zeit 06:25 HST 17:56 HST
Bürgerliche Dämmerung 06:02 HST 18:18 HST
Nautische Dämmerung 05:36 HST 18:44 HST
Astronomische Dämmerung 05:10 HST 19:10 HST
Mond 06:17 HST 18:05 HST
Länge des sichtbaren Lichts 12h 16m
Tageslänge
11h 31m
Tomorrow will be 1m 6s shorter.
Letztes Viertel, 0% of the Moon is Illuminated
Heute
Letztes Viertel
Okt 23
Neu
Okt 30
Erstes Viertel
Nov 6
Vollmond
Nov 14
Letztes Viertel

Heutige Rekorde

State Highs State Lows

Community

WunderPhotos

Upload Photos

1,764,201 Fotos hochgeladen!

Nearby

Schneehöhe

Station Depth Höhe
Kein Neuschnee gemeldet.

Erdbebenaktivität

Stadt Distance Mag. Time & Date
No recent earthquake activity has been reported nearby.
Minimum magnitude displayed is 2.5.

küstennahe Wassertemperaturen

Ort Temperatur
Kein Stationsbericht

Wetterstationen in der Umgebung